Jack Holland — WDF3615 — position and weather

sailwx.info

Track history (hours):
 
Tides and Currents Weather Stations Pressure Air Temp Water Temp Dewpoint Dewpoint Depression Visibility Wind Speed Wind Dir Waves Ship Positions

Jack Holland

Owner: Norfolk Tug Company, Norfolk, VA. More information available from US FCC via Universal Licensing System and Coast Guard Vessel Documentation Center.

Last reported at 2016-Jun-28 01:14 UTC. Time now 2016-Jun-28 06:02 UTC.
Position N 38°52' W 076°26'.

Length 22 m; draft 2.5 m.

Type: Tug. MMSI: 367442020.

Date/timePositionNaut miles runAvg speedWind from/ knotsBaromVisibWave heightAir tempDewpointWater temp
2016-Jun-28 01:14N 38°52' W 076°26'5 7.2
2016-Jun-28 00:33N 38°57' W 076°25'8 7.8
2016-Jun-27 23:33N 39°04' W 076°24'8 7.6
2016-Jun-27 22:34N 39°11' W 076°28'5 4.8
2016-Jun-27 21:34N 39°13' W 076°33'0 0.2
2016-Jun-27 20:33N 39°13' W 076°34'0 0.0
2016-Jun-27 19:30N 39°13' W 076°34'0 0.0
2016-Jun-27 18:34N 39°13' W 076°34'0 0.0
2016-Jun-27 17:33N 39°13' W 076°34'0 0.0
2016-Jun-27 16:32N 39°13' W 076°34'0 0.0
2016-Jun-27 15:25N 39°13' W 076°34'0 0.0
2016-Jun-27 14:30N 39°13' W 076°34'0 0.0
2016-Jun-27 13:32N 39°13' W 076°34'0 0.0
2016-Jun-27 12:31N 39°13' W 076°34'0 0.0
2016-Jun-27 11:30N 39°13' W 076°34'0 0.0
2016-Jun-27 10:33N 39°13' W 076°34'0 0.0
2016-Jun-27 09:33N 39°13' W 076°34'2 1.6
2016-Jun-27 08:33N 39°13' W 076°32'7 6.9
2016-Jun-27 07:31N 39°08' W 076°24'8 7.1
2016-Jun-27 06:24N 39°01' W 076°23'125 6.9
2016-Jun-26 12:16N 36°56' W 076°20'5 7.1
2016-Jun-26 11:33N 36°51' W 076°18'3 2.8
2016-Jun-26 10:33N 36°50' W 076°15'1 1.0
2016-Jun-26 09:33N 36°50' W 076°16'0 0.0
2016-Jun-26 08:33N 36°50' W 076°16'0 0.0
2016-Jun-26 07:33N 36°50' W 076°16'0 0.0
2016-Jun-26 06:32N 36°50' W 076°16'0 0.0
2016-Jun-26 05:33N 36°50' W 076°16'0 0.0
2016-Jun-26 04:33N 36°50' W 076°16'0 0.0
2016-Jun-26 03:33N 36°50' W 076°16'0 0.0
2016-Jun-26 02:33N 36°50' W 076°16'0 0.0
2016-Jun-26 01:33N 36°50' W 076°16'0 0.0
2016-Jun-26 00:33N 36°50' W 076°16'0 0.0
2016-Jun-25 23:33N 36°50' W 076°16'0 0.0
2016-Jun-25 22:33N 36°50' W 076°16'0 0.0
2016-Jun-25 21:33N 36°50' W 076°16'0 0.0
2016-Jun-25 20:33N 36°50' W 076°16'0 0.0
2016-Jun-25 19:33N 36°50' W 076°16'0 0.0
2016-Jun-25 18:33N 36°50' W 076°16'0 0.0
2016-Jun-25 17:33N 36°50' W 076°16'0 0.0
2016-Jun-25 16:33N 36°50' W 076°16'0 0.0
2016-Jun-25 15:33N 36°50' W 076°16'0 0.0
2016-Jun-25 14:33N 36°50' W 076°16'0 0.0
2016-Jun-25 13:33N 36°50' W 076°16'0 0.0
2016-Jun-25 12:33N 36°50' W 076°16'0 0.0
2016-Jun-25 11:33N 36°50' W 076°16'0 0.0
2016-Jun-25 09:24N 36°50' W 076°16'0 0.0
2016-Jun-25 08:28N 36°50' W 076°16'0 0.0
2016-Jun-25 06:14N 36°50' W 076°16'0 0.0
2016-Jun-25 03:18N 36°50' W 076°16'0 0.0
2016-Jun-25 02:06N 36°50' W 076°16'0 0.0
2016-Jun-25 00:12N 36°50' W 076°16'1 0.2
2016-Jun-24 15:33N 36°49' W 076°17'0 0.0
2016-Jun-24 14:33N 36°49' W 076°17'1 0.9
2016-Jun-24 13:33N 36°50' W 076°18'1 0.3
2016-Jun-24 10:07N 36°50' W 076°16'0 0.2
2016-Jun-24 09:33N 36°50' W 076°16'5 4.9
2016-Jun-24 08:33N 36°54' W 076°20'1 0.0
2016-Jun-23 00:13N 36°55' W 076°20'4 6.4
2016-Jun-22 23:33N 36°51' W 076°18'5 4.7
2016-Jun-22 22:33N 36°47' W 076°18'1 1.4
2016-Jun-22 21:33N 36°48' W 076°18'2 2.4
2016-Jun-22 20:33N 36°50' W 076°17'0 0.0
2016-Jun-22 19:33N 36°50' W 076°17'0 0.0
2016-Jun-22 18:33N 36°50' W 076°17'0 0.0
2016-Jun-22 17:33N 36°50' W 076°17'0 0.0
2016-Jun-22 16:33N 36°50' W 076°17'0 0.0
2016-Jun-22 15:33N 36°50' W 076°17'0 0.0
2016-Jun-22 14:33N 36°50' W 076°17'4 3.9
2016-Jun-22 13:33N 36°53' W 076°20'0 0.1
2016-Jun-22 11:22N 36°53' W 076°20'4 5.4
2016-Jun-22 10:33N 36°50' W 076°16'0 0.0
2016-Jun-22 00:12N 36°50' W 076°16'3 5.2
2016-Jun-21 23:33N 36°47' W 076°18'1 0.7
2016-Jun-21 22:33N 36°47' W 076°18'3 2.7
2016-Jun-21 21:33N 36°49' W 076°17'1 1.3
2016-Jun-21 20:33N 36°50' W 076°16'0 0.0
2016-Jun-21 19:33N 36°50' W 076°16'0 0.2
2016-Jun-21 18:33N 36°50' W 076°16'0 0.1
2016-Jun-21 17:33N 36°50' W 076°16'0 0.4
2016-Jun-21 16:33N 36°50' W 076°16'0 0.0
2016-Jun-21 15:33N 36°50' W 076°16'0 0.0
2016-Jun-21 14:33N 36°50' W 076°16'4 4.2
2016-Jun-21 13:33N 36°53' W 076°20'1 0.3
2016-Jun-21 11:32N 36°53' W 076°20'0 0.3
2016-Jun-21 10:33N 36°53' W 076°20'0 0.0
2016-Jun-21 09:33N 36°53' W 076°20'0 0.0
2016-Jun-21 08:33N 36°53' W 076°20'1 0.5
2016-Jun-21 07:33N 36°53' W 076°20'1 0.3
2016-Jun-21 05:33N 36°53' W 076°20'3 0.1
2016-Jun-19 14:33N 36°56' W 076°20'8 7.6
2016-Jun-19 13:33N 36°49' W 076°17'3 2.6
2016-Jun-19 12:33N 36°46' W 076°18'4 4.2
2016-Jun-19 11:33N 36°50' W 076°18'1 1.1
2016-Jun-19 10:33N 36°50' W 076°16'0 0.0
2016-Jun-19 09:33N 36°50' W 076°16'0 0.0
2016-Jun-19 08:33N 36°50' W 076°16'0 0.0
2016-Jun-19 07:33N 36°50' W 076°16'0 0.0
2016-Jun-19 06:33N 36°50' W 076°16'0 0.0
2016-Jun-19 05:33N 36°50' W 076°16'0 0.0
2016-Jun-19 04:33N 36°50' W 076°16'0 0.0
2016-Jun-19 03:33N 36°50' W 076°16'0 0.0
2016-Jun-19 02:33N 36°50' W 076°16'0 0.0
2016-Jun-19 01:34N 36°50' W 076°16'0 0.0
2016-Jun-19 00:33N 36°50' W 076°16'0 0.0
2016-Jun-18 23:33N 36°50' W 076°16'0 0.0
2016-Jun-18 22:32N 36°50' W 076°16'0 0.0
2016-Jun-18 21:32N 36°50' W 076°16'0 0.0
2016-Jun-18 20:31N 36°50' W 076°16'0 0.0
2016-Jun-18 19:33N 36°50' W 076°16'0 0.0
2016-Jun-18 18:32N 36°50' W 076°16'0 0.0
2016-Jun-18 17:34N 36°50' W 076°16'0 0.0
2016-Jun-18 16:33N 36°50' W 076°16'0 0.0
2016-Jun-18 15:33N 36°50' W 076°16'0 0.0
2016-Jun-18 14:33N 36°50' W 076°16'0 0.0
2016-Jun-18 13:33N 36°50' W 076°16'0 0.0
2016-Jun-18 12:33N 36°50' W 076°16'0 0.0
2016-Jun-18 11:33N 36°50' W 076°16'0 0.0
2016-Jun-18 10:32N 36°50' W 076°16'0 0.0
2016-Jun-18 09:33N 36°50' W 076°16'0 0.0
2016-Jun-18 08:33N 36°50' W 076°16'0 0.0
2016-Jun-18 07:32N 36°50' W 076°16'0 0.0
2016-Jun-18 06:33N 36°50' W 076°16'0 0.0
2016-Jun-18 05:33N 36°50' W 076°16'0 0.0
2016-Jun-18 04:33N 36°50' W 076°16'0 0.0
2016-Jun-18 03:33N 36°50' W 076°16'0 0.0
2016-Jun-18 02:32N 36°50' W 076°16'0 0.0
2016-Jun-18 01:31N 36°50' W 076°16'  
Track history (hours):
 
Tides and Currents Weather Stations Pressure Air Temp Water Temp Dewpoint Dewpoint Depression Visibility Wind Speed Wind Dir Waves Ship Positions

Jack Holland

Owner: Norfolk Tug Company, Norfolk, VA. More information available from US FCC via Universal Licensing System and Coast Guard Vessel Documentation Center.

Last reported at 2016-Jun-28 01:14 UTC. Time now 2016-Jun-28 06:02 UTC.
Position N 38°52' W 076°26'.

Length 22 m; draft 2.5 m.

Type: Tug. MMSI: 367442020.

Date/timePositionNaut miles runAvg speedWind from/ knotsBaromVisibWave heightAir tempDewpointWater temp
2016-Jun-28 01:14N 38°52' W 076°26'5 7.2
2016-Jun-28 00:33N 38°57' W 076°25'8 7.8
2016-Jun-27 23:33N 39°04' W 076°24'8 7.6
2016-Jun-27 22:34N 39°11' W 076°28'5 4.8
2016-Jun-27 21:34N 39°13' W 076°33'0 0.2
2016-Jun-27 20:33N 39°13' W 076°34'0 0.0
2016-Jun-27 19:30N 39°13' W 076°34'0 0.0
2016-Jun-27 18:34N 39°13' W 076°34'0 0.0
2016-Jun-27 17:33N 39°13' W 076°34'0 0.0
2016-Jun-27 16:32N 39°13' W 076°34'0 0.0
2016-Jun-27 15:25N 39°13' W 076°34'0 0.0
2016-Jun-27 14:30N 39°13' W 076°34'0 0.0
2016-Jun-27 13:32N 39°13' W 076°34'0 0.0
2016-Jun-27 12:31N 39°13' W 076°34'0 0.0
2016-Jun-27 11:30N 39°13' W 076°34'0 0.0
2016-Jun-27 10:33N 39°13' W 076°34'0 0.0
2016-Jun-27 09:33N 39°13' W 076°34'2 1.6
2016-Jun-27 08:33N 39°13' W 076°32'7 6.9
2016-Jun-27 07:31N 39°08' W 076°24'8 7.1
2016-Jun-27 06:24N 39°01' W 076°23'125 6.9
2016-Jun-26 12:16N 36°56' W 076°20'5 7.1
2016-Jun-26 11:33N 36°51' W 076°18'3 2.8
2016-Jun-26 10:33N 36°50' W 076°15'1 1.0
2016-Jun-26 09:33N 36°50' W 076°16'0 0.0
2016-Jun-26 08:33N 36°50' W 076°16'0 0.0
2016-Jun-26 07:33N 36°50' W 076°16'0 0.0
2016-Jun-26 06:32N 36°50' W 076°16'0 0.0
2016-Jun-26 05:33N 36°50' W 076°16'0 0.0
2016-Jun-26 04:33N 36°50' W 076°16'0 0.0
2016-Jun-26 03:33N 36°50' W 076°16'0 0.0
2016-Jun-26 02:33N 36°50' W 076°16'0 0.0
2016-Jun-26 01:33N 36°50' W 076°16'0 0.0
2016-Jun-26 00:33N 36°50' W 076°16'0 0.0
2016-Jun-25 23:33N 36°50' W 076°16'0 0.0
2016-Jun-25 22:33N 36°50' W 076°16'0 0.0
2016-Jun-25 21:33N 36°50' W 076°16'0 0.0
2016-Jun-25 20:33N 36°50' W 076°16'0 0.0
2016-Jun-25 19:33N 36°50' W 076°16'0 0.0
2016-Jun-25 18:33N 36°50' W 076°16'0 0.0
2016-Jun-25 17:33N 36°50' W 076°16'0 0.0
2016-Jun-25 16:33N 36°50' W 076°16'0 0.0
2016-Jun-25 15:33N 36°50' W 076°16'0 0.0
2016-Jun-25 14:33N 36°50' W 076°16'0 0.0
2016-Jun-25 13:33N 36°50' W 076°16'0 0.0
2016-Jun-25 12:33N 36°50' W 076°16'0 0.0
2016-Jun-25 11:33N 36°50' W 076°16'0 0.0
2016-Jun-25 09:24N 36°50' W 076°16'0 0.0
2016-Jun-25 08:28N 36°50' W 076°16'0 0.0
2016-Jun-25 06:14N 36°50' W 076°16'0 0.0
2016-Jun-25 03:18N 36°50' W 076°16'0 0.0
2016-Jun-25 02:06N 36°50' W 076°16'0 0.0
2016-Jun-25 00:12N 36°50' W 076°16'1 0.2
2016-Jun-24 15:33N 36°49' W 076°17'0 0.0
2016-Jun-24 14:33N 36°49' W 076°17'1 0.9
2016-Jun-24 13:33N 36°50' W 076°18'1 0.3
2016-Jun-24 10:07N 36°50' W 076°16'0 0.2
2016-Jun-24 09:33N 36°50' W 076°16'5 4.9
2016-Jun-24 08:33N 36°54' W 076°20'1 0.0
2016-Jun-23 00:13N 36°55' W 076°20'4 6.4
2016-Jun-22 23:33N 36°51' W 076°18'5 4.7
2016-Jun-22 22:33N 36°47' W 076°18'1 1.4
2016-Jun-22 21:33N 36°48' W 076°18'2 2.4
2016-Jun-22 20:33N 36°50' W 076°17'0 0.0
2016-Jun-22 19:33N 36°50' W 076°17'0 0.0
2016-Jun-22 18:33N 36°50' W 076°17'0 0.0
2016-Jun-22 17:33N 36°50' W 076°17'0 0.0
2016-Jun-22 16:33N 36°50' W 076°17'0 0.0
2016-Jun-22 15:33N 36°50' W 076°17'0 0.0
2016-Jun-22 14:33N 36°50' W 076°17'4 3.9
2016-Jun-22 13:33N 36°53' W 076°20'0 0.1
2016-Jun-22 11:22N 36°53' W 076°20'4 5.4
2016-Jun-22 10:33N 36°50' W 076°16'0 0.0
2016-Jun-22 00:12N 36°50' W 076°16'3 5.2
2016-Jun-21 23:33N 36°47' W 076°18'1 0.7
2016-Jun-21 22:33N 36°47' W 076°18'3 2.7
2016-Jun-21 21:33N 36°49' W 076°17'1 1.3
2016-Jun-21 20:33N 36°50' W 076°16'0 0.0
2016-Jun-21 19:33N 36°50' W 076°16'0 0.2
2016-Jun-21 18:33N 36°50' W 076°16'0 0.1
2016-Jun-21 17:33N 36°50' W 076°16'0 0.4
2016-Jun-21 16:33N 36°50' W 076°16'0 0.0
2016-Jun-21 15:33N 36°50' W 076°16'0 0.0
2016-Jun-21 14:33N 36°50' W 076°16'4 4.2
2016-Jun-21 13:33N 36°53' W 076°20'1 0.3
2016-Jun-21 11:32N 36°53' W 076°20'0 0.3
2016-Jun-21 10:33N 36°53' W 076°20'0 0.0
2016-Jun-21 09:33N 36°53' W 076°20'0 0.0
2016-Jun-21 08:33N 36°53' W 076°20'1 0.5
2016-Jun-21 07:33N 36°53' W 076°20'1 0.3
2016-Jun-21 05:33N 36°53' W 076°20'3 0.1
2016-Jun-19 14:33N 36°56' W 076°20'8 7.6
2016-Jun-19 13:33N 36°49' W 076°17'3 2.6
2016-Jun-19 12:33N 36°46' W 076°18'4 4.2
2016-Jun-19 11:33N 36°50' W 076°18'1 1.1
2016-Jun-19 10:33N 36°50' W 076°16'0 0.0
2016-Jun-19 09:33N 36°50' W 076°16'0 0.0
2016-Jun-19 08:33N 36°50' W 076°16'0 0.0
2016-Jun-19 07:33N 36°50' W 076°16'0 0.0
2016-Jun-19 06:33N 36°50' W 076°16'0 0.0
2016-Jun-19 05:33N 36°50' W 076°16'0 0.0
2016-Jun-19 04:33N 36°50' W 076°16'0 0.0
2016-Jun-19 03:33N 36°50' W 076°16'0 0.0
2016-Jun-19 02:33N 36°50' W 076°16'0 0.0
2016-Jun-19 01:34N 36°50' W 076°16'0 0.0
2016-Jun-19 00:33N 36°50' W 076°16'0 0.0
2016-Jun-18 23:33N 36°50' W 076°16'0 0.0
2016-Jun-18 22:32N 36°50' W 076°16'0 0.0
2016-Jun-18 21:32N 36°50' W 076°16'0 0.0
2016-Jun-18 20:31N 36°50' W 076°16'0 0.0
2016-Jun-18 19:33N 36°50' W 076°16'0 0.0
2016-Jun-18 18:32N 36°50' W 076°16'0 0.0
2016-Jun-18 17:34N 36°50' W 076°16'0 0.0
2016-Jun-18 16:33N 36°50' W 076°16'0 0.0
2016-Jun-18 15:33N 36°50' W 076°16'0 0.0
2016-Jun-18 14:33N 36°50' W 076°16'0 0.0
2016-Jun-18 13:33N 36°50' W 076°16'0 0.0
2016-Jun-18 12:33N 36°50' W 076°16'0 0.0
2016-Jun-18 11:33N 36°50' W 076°16'0 0.0
2016-Jun-18 10:32N 36°50' W 076°16'0 0.0
2016-Jun-18 09:33N 36°50' W 076°16'0 0.0
2016-Jun-18 08:33N 36°50' W 076°16'0 0.0
2016-Jun-18 07:32N 36°50' W 076°16'0 0.0
2016-Jun-18 06:33N 36°50' W 076°16'0 0.0
2016-Jun-18 05:33N 36°50' W 076°16'0 0.0
2016-Jun-18 04:33N 36°50' W 076°16'0 0.0
2016-Jun-18 03:33N 36°50' W 076°16'0 0.0
2016-Jun-18 02:32N 36°50' W 076°16'0 0.0
2016-Jun-18 01:31N 36°50' W 076°16'  

Dump ship's entire track history